Time;durP1;ratioP1;P1;durP2;ratioP2;P2;SDS_P1;SDS_P2;PMS_P1;PMS_P2;Temp;Humidity;BMP_temperature;BMP_pressure;BME280_temperature;BME280_humidity;BME280_pressure;Samples;Min_cycle;Max_cycle;Signal;HPM_P1;HPM_P2
2022/12/22 03:28:02;;;;;;;;;;;;;;;4.42;60.05;100571.91;5342654;32;34505;-73
2022/12/22 03:31:04;;;;;;;;;;;;;;;4.57;59.84;100563.91;5318472;32;34171;-74
2022/12/22 03:34:06;;;;;;;;;;;;;;;5.33;57.85;100570.72;5338504;32;34003;-73
2022/12/22 03:37:08;;;;;;;;;;;;;;;4.92;57.82;100565.25;5323784;32;34392;-71
2022/12/22 03:40:10;;;;;;;;;;;;;;;4.65;59.41;100567.31;5326371;32;34455;-74
2022/12/22 03:46:33;;;;;;;;;;;;;;;4.41;61.18;100547.62;5324136;32;33739;-71
2022/12/22 03:49:35;;;;;;;;;;;;;;;5.00;59.27;100538.19;5327605;32;34276;-71
2022/12/22 03:52:37;;;;;;;;;;;;;;;4.82;60.33;100543.66;5306179;32;34647;-72
2022/12/22 03:55:39;;;;;;;;;;;;;;;5.80;57.62;100530.00;5340957;32;34777;-73
2022/12/22 03:58:41;;;;;;;;;;;;;;;5.72;57.83;100539.69;5325694;32;33737;-73
2022/12/22 04:01:44;;;;;;;;;;;;;;;5.26;60.68;100548.25;5330679;32;33821;-74
2022/12/22 04:04:46;;;;;;;;;;;;;;;6.31;57.65;100548.25;5333087;32;45575;-72
2022/12/22 04:07:48;;;;;;;;;;;;;;;6.41;56.39;100551.53;5324624;32;33420;-72
2022/12/22 04:14:10;;;;;;;;;;;;;;;5.75;58.42;100554.44;5324036;32;35628;-70
2022/12/22 04:17:12;;;;;;;;;;;;;;;5.70;60.20;100565.81;5338813;32;33907;-73
2022/12/22 04:20:14;;;;;;;;;;;;;;;4.82;62.01;100573.16;5325247;32;33692;-72
2022/12/22 04:23:16;;;;;;;;;;;;;;;4.78;62.55;100571.50;5324702;32;33800;-70
2022/12/22 04:26:18;;;;;;;;;;;;;;;5.58;60.95;100558.19;5341394;32;45856;-71
2022/12/22 04:29:20;;;;;;;;;;;;;;;5.51;60.71;100563.50;5322264;32;34068;-74
2022/12/22 04:32:22;;;;;;;;;;;;;;;5.07;61.67;100563.28;5337258;32;33736;-73
2022/12/22 04:35:24;;;;;;;;;;;;;;;5.27;61.31;100565.59;5322396;32;35396;-73
2022/12/22 04:38:26;;;;;;;;;;;;;;;5.21;61.48;100572.66;5338432;32;34665;-71
2022/12/22 04:41:28;;;;;;;;;;;;;;;5.05;62.41;100556.38;5325577;32;34077;-72
2022/12/22 04:44:29;;;;;;;;;;;;;;;5.04;63.32;100565.09;5323282;32;34437;-73
2022/12/22 04:47:31;;;;;;;;;;;;;;;5.03;63.67;100545.13;5339289;32;34371;-73
2022/12/22 04:50:33;;;;;;;;;;;;;;;5.75;61.77;100552.69;5312672;32;34032;-73
2022/12/22 04:53:35;;;;;;;;;;;;;;;4.87;61.98;100555.72;5328834;32;34449;-73
2022/12/22 04:56:37;;;;;;;;;;;;;;;4.28;66.05;100554.72;5324290;32;32959;-72
2022/12/22 04:59:39;;;;;;;;;;;;;;;5.99;60.04;100548.84;5336863;32;33955;-71
2022/12/22 05:02:41;;;;;;;;;;;;;;;5.34;61.61;100535.94;5325379;32;33560;-73
2022/12/22 05:05:43;;;;;;;;;;;;;;;5.45;61.57;100543.62;5323527;32;34549;-72
2022/12/22 05:08:45;;;;;;;;;;;;;;;4.81;64.13;100545.41;5341095;32;34606;-72
2022/12/22 05:11:47;;;;;;;;;;;;;;;6.06;59.51;100544.38;5323370;32;45376;-74
2022/12/22 05:14:49;;;;;;;;;;;;;;;5.63;60.67;100547.69;5339687;32;33763;-71
2022/12/22 05:17:51;;;;;;;;;;;;;;;5.29;61.63;100545.59;5324535;32;34608;-71
2022/12/22 05:20:53;;;;;;;;;;;;;;;5.86;61.07;100549.88;5336956;32;34408;-72
2022/12/22 05:23:54;;;;;;;;;;;;;;;5.81;61.01;100536.09;5325885;32;35203;-73
2022/12/22 05:26:56;;;;;;;;;;;;;;;5.87;60.96;100539.44;5324433;32;33960;-72
2022/12/22 05:29:58;;;;;;;;;;;;;;;5.91;60.84;100546.34;5338592;32;33745;-73
2022/12/22 05:33:00;;;;;;;;;;;;;;;5.90;60.32;100549.81;5320699;32;33694;-72
2022/12/22 05:36:02;;;;;;;;;;;;;;;6.11;59.66;100548.59;5335155;32;32864;-74
2022/12/22 05:39:04;;;;;;;;;;;;;;;5.16;62.95;100546.66;5319448;32;33868;-72
2022/12/22 05:42:06;;;;;;;;;;;;;;;5.21;64.59;100557.88;5337611;32;33988;-74
2022/12/22 05:45:08;;;;;;;;;;;;;;;5.81;60.89;100542.16;5324516;32;34475;-72
2022/12/22 05:48:10;;;;;;;;;;;;;;;4.98;63.75;100553.00;5320858;32;34131;-70
2022/12/22 05:51:12;;;;;;;;;;;;;;;5.25;63.59;100536.09;5321401;32;34049;-72
2022/12/22 05:54:13;;;;;;;;;;;;;;;5.61;62.27;100539.88;5304863;32;34471;-71
2022/12/22 05:57:15;;;;;;;;;;;;;;;5.94;61.21;100533.28;5341322;32;34065;-72
2022/12/22 06:00:18;;;;;;;;;;;;;;;5.82;60.87;100530.84;5324100;32;44725;-73
2022/12/22 06:03:20;;;;;;;;;;;;;;;5.51;61.95;100540.06;5338220;32;33815;-72
2022/12/22 06:06:24;;;;;;;;;;;;;;;5.36;63.34;100541.16;5328628;32;34893;-72
2022/12/22 06:09:26;;;;;;;;;;;;;;;5.47;62.15;100535.75;5322401;32;33039;-73
2022/12/22 06:12:28;;;;;;;;;;;;;;;5.39;62.98;100551.53;5340748;32;34427;-73
2022/12/22 06:15:30;;;;;;;;;;;;;;;5.84;60.95;100546.47;5322949;32;34338;-75
2022/12/22 06:18:32;;;;;;;;;;;;;;;6.29;59.78;100542.19;5335828;32;33598;-70
2022/12/22 06:21:34;;;;;;;;;;;;;;;5.65;60.77;100546.75;5309219;32;33290;-74
2022/12/22 06:24:36;;;;;;;;;;;;;;;5.57;61.77;100558.22;5336469;32;33599;-70
2022/12/22 06:27:38;;;;;;;;;;;;;;;5.63;62.01;100545.06;5327587;32;33239;-72
2022/12/22 06:30:40;;;;;;;;;;;;;;;5.25;62.64;100561.31;5321410;32;33163;-80
2022/12/22 06:33:42;;;;;;;;;;;;;;;5.43;62.88;100566.25;5343849;32;33238;-78
2022/12/22 06:36:44;;;;;;;;;;;;;;;4.89;63.84;100569.63;5319682;32;33304;-76
2022/12/22 06:39:46;;;;;;;;;;;;;;;5.33;63.13;100564.66;5336295;32;41931;-80
2022/12/22 06:46:10;;;;;;;;;;;;;;;5.82;61.13;100564.75;5330332;32;34504;-70
2022/12/22 06:49:12;;;;;;;;;;;;;;;5.56;61.55;100561.72;5326573;32;34497;-70
2022/12/22 06:52:14;;;;;;;;;;;;;;;5.55;61.84;100562.59;5309031;32;33257;-70
2022/12/22 06:55:16;;;;;;;;;;;;;;;6.27;59.31;100571.81;5335789;32;43772;-72
2022/12/22 06:58:18;;;;;;;;;;;;;;;6.20;59.23;100571.94;5320527;32;33333;-71
2022/12/22 07:01:20;;;;;;;;;;;;;;;5.30;61.58;100573.38;5326540;32;45138;-74
2022/12/22 07:04:22;;;;;;;;;;;;;;;4.41;66.73;100584.06;5319865;32;33216;-71
2022/12/22 07:07:24;;;;;;;;;;;;;;;4.30;66.69;100578.97;5328481;32;33079;-71
2022/12/22 07:13:47;;;;;;;;;;;;;;;4.58;67.02;100565.66;5326474;32;45350;-72
2022/12/22 07:16:48;;;;;;;;;;;;;;;5.33;64.45;100570.72;5340395;32;35173;-74
2022/12/22 07:19:50;;;;;;;;;;;;;;;4.75;67.23;100575.84;5326904;32;33661;-73
2022/12/22 07:22:52;;;;;;;;;;;;;;;4.77;67.42;100561.97;5335547;32;33472;-73
2022/12/22 07:25:54;;;;;;;;;;;;;;;5.68;64.35;100562.37;5315880;32;33505;-80
2022/12/22 07:28:56;;;;;;;;;;;;;;;5.06;65.94;100568.50;5333065;32;33320;-73
2022/12/22 07:31:58;;;;;;;;;;;;;;;5.64;64.69;100565.91;5339299;32;33219;-73
2022/12/22 07:35:00;;;;;;;;;;;;;;;6.09;63.25;100562.56;5322259;32;33007;-76
2022/12/22 07:38:06;;;;;;;;;;;;;;;6.43;61.32;100557.59;5337716;32;33434;-80
2022/12/22 07:44:30;;;;;;;;;;;;;;;5.24;66.21;100567.41;5321683;32;34850;-76
2022/12/22 07:47:33;;;;;;;;;;;;;;;5.42;64.69;100570.59;5330955;32;33791;-74
2022/12/22 07:50:36;;;;;;;;;;;;;;;6.04;62.90;100567.00;5310339;32;33181;-77
2022/12/22 07:53:38;;;;;;;;;;;;;;;6.41;60.85;100575.91;5327727;32;33090;-87
2022/12/22 07:56:41;;;;;;;;;;;;;;;6.68;60.12;100591.91;5323774;32;33458;-76
2022/12/22 07:59:43;;;;;;;;;;;;;;;5.11;65.15;100597.97;5335723;32;33843;-75
2022/12/22 08:02:49;;;;;;;;;;;;;;;5.92;63.77;100581.12;5328997;32;34562;-73
2022/12/22 08:05:51;;;;;;;;;;;;;;;5.96;62.98;100567.16;5330562;32;44920;-83
2022/12/22 08:08:53;;;;;;;;;;;;;;;5.95;63.13;100568.03;5345097;32;33444;-74
2022/12/22 08:11:56;;;;;;;;;;;;;;;6.66;60.19;100571.06;5333481;32;33376;-76
2022/12/22 08:14:58;;;;;;;;;;;;;;;6.02;61.66;100579.22;5340243;32;35108;-76
2022/12/22 08:18:00;;;;;;;;;;;;;;;6.16;60.60;100572.87;5312735;32;34628;-88
2022/12/22 08:21:03;;;;;;;;;;;;;;;6.83;58.50;100577.66;5338096;32;34127;-73
2022/12/22 08:24:05;;;;;;;;;;;;;;;6.13;59.27;100579.91;5325478;32;35102;-74
2022/12/22 08:27:09;;;;;;;;;;;;;;;6.84;57.94;100580.28;5327919;32;33207;-72
2022/12/22 08:30:11;;;;;;;;;;;;;;;6.92;58.00;100585.34;5324904;32;33748;-72
2022/12/22 08:33:13;;;;;;;;;;;;;;;6.73;58.24;100567.44;5327470;32;34491;-72
2022/12/22 08:36:15;;;;;;;;;;;;;;;6.39;59.06;100582.03;5340780;32;33270;-70
2022/12/22 08:39:18;;;;;;;;;;;;;;;6.69;58.41;100570.13;5328543;32;44376;-72
2022/12/22 08:42:20;;;;;;;;;;;;;;;6.72;57.76;100567.47;5338990;32;33374;-76
2022/12/22 08:45:22;;;;;;;;;;;;;;;6.39;58.62;100563.78;5326916;32;34580;-73
2022/12/22 08:48:24;;;;;;;;;;;;;;;6.21;59.52;100570.19;5333240;32;33103;-72
2022/12/22 08:51:26;;;;;;;;;;;;;;;6.24;59.38;100576.19;5320776;32;32978;-73
2022/12/22 08:54:28;;;;;;;;;;;;;;;5.56;61.87;100590.38;5318722;32;34120;-77
2022/12/22 08:57:30;;;;;;;;;;;;;;;6.23;59.85;100589.28;5339625;32;33359;-78
2022/12/22 09:00:32;;;;;;;;;;;;;;;6.73;57.81;100571.78;5325111;32;33204;-75
2022/12/22 09:03:34;;;;;;;;;;;;;;;6.20;59.44;100573.69;5334357;32;33318;-79
2022/12/22 09:06:36;;;;;;;;;;;;;;;6.10;59.07;100575.59;5326285;32;33200;-74
2022/12/22 09:09:42;;;;;;;;;;;;;;;5.18;62.88;100576.16;5317678;32;34145;-77
2022/12/22 09:12:46;;;;;;;;;;;;;;;5.43;61.04;100556.69;5337709;32;33855;-74
2022/12/22 09:15:48;;;;;;;;;;;;;;;6.23;58.94;100560.56;5308456;32;42968;-72
2022/12/22 09:18:51;;;;;;;;;;;;;;;5.54;62.11;100561.75;5333240;32;33319;-68
2022/12/22 09:21:53;;;;;;;;;;;;;;;6.05;60.39;100553.06;5320470;32;33299;-72
2022/12/22 09:24:56;;;;;;;;;;;;;;;6.70;57.97;100538.78;5317996;32;33488;-72
2022/12/22 09:27:58;;;;;;;;;;;;;;;5.56;62.30;100530.41;5331877;32;33409;-69
2022/12/22 09:31:00;;;;;;;;;;;;;;;6.20;60.01;100544.97;5321084;32;33195;-72
2022/12/22 09:34:02;;;;;;;;;;;;;;;5.87;61.96;100542.06;5331625;32;33300;-72
2022/12/22 09:37:05;;;;;;;;;;;;;;;5.70;61.02;100518.00;5312985;32;35653;-71
2022/12/22 09:40:07;;;;;;;;;;;;;;;6.23;59.12;100518.81;5324930;32;34472;-69
2022/12/22 09:43:12;;;;;;;;;;;;;;;5.82;59.59;100528.22;5314756;32;33869;-76
2022/12/22 09:46:19;;;;;;;;;;;;;;;5.26;62.14;100537.81;5318829;32;33276;-78
2022/12/22 09:49:22;;;;;;;;;;;;;;;5.00;61.37;100530.38;5320366;32;46207;-73
2022/12/22 09:52:33;;;;;;;;;;;;;;;4.81;62.46;100529.78;5306084;32;33166;-77
2022/12/22 09:55:39;;;;;;;;;;;;;;;4.88;62.31;100526.19;5336225;32;34299;-71
2022/12/22 09:58:41;;;;;;;;;;;;;;;4.98;62.60;100531.28;5328359;32;33174;-79
2022/12/22 10:02:03;;;;;;;;;;;;;;;5.41;62.04;100516.75;5330362;32;33124;-72
2022/12/22 10:05:09;;;;;;;;;;;;;;;5.55;60.77;100513.91;5321100;32;34484;-69
2022/12/22 10:08:13;;;;;;;;;;;;;;;5.22;61.79;100509.25;5327525;32;33296;-77
2022/12/22 10:11:16;;;;;;;;;;;;;;;5.63;61.16;100505.97;5335688;32;33234;-71
2022/12/22 10:14:18;;;;;;;;;;;;;;;5.14;61.82;100524.97;5318108;32;44783;-69
2022/12/22 10:17:32;;;;;;;;;;;;;;;4.71;64.69;100517.78;5331045;32;33199;-78
2022/12/22 10:20:37;;;;;;;;;;;;;;;5.19;63.83;100507.53;5310082;32;33318;-70
2022/12/22 10:23:40;;;;;;;;;;;;;;;5.88;61.69;100493.34;5313285;32;33165;-74
2022/12/22 10:26:42;;;;;;;;;;;;;;;6.22;59.95;100491.00;5336187;32;33272;-72
2022/12/22 10:29:43;;;;;;;;;;;;;;;6.84;56.78;100487.97;5320792;32;33675;-72
2022/12/22 10:33:02;;;;;;;;;;;;;;;6.55;57.50;100484.22;5331293;32;35834;-75
2022/12/22 10:36:04;;;;;;;;;;;;;;;6.57;57.70;100484.19;5320671;32;33291;-73
2022/12/22 10:39:07;;;;;;;;;;;;;;;5.66;60.14;100492.84;5319282;32;33700;-72
2022/12/22 10:42:12;;;;;;;;;;;;;;;6.51;56.58;100479.97;5328624;32;36055;-72
2022/12/22 10:45:18;;;;;;;;;;;;;;;6.69;55.38;100460.41;5324443;32;35025;-76
2022/12/22 10:48:27;;;;;;;;;;;;;;;5.70;58.30;100471.94;5339916;32;45310;-74
2022/12/22 10:51:29;;;;;;;;;;;;;;;6.62;56.18;100459.69;5316880;32;34792;-77
2022/12/22 10:54:32;;;;;;;;;;;;;;;6.97;55.08;100450.22;5337057;32;33202;-78
2022/12/22 10:57:34;;;;;;;;;;;;;;;6.92;54.84;100441.63;5313571;32;33372;-76
2022/12/22 11:00:36;;;;;;;;;;;;;;;7.21;54.52;100433.06;5332169;32;33671;-74
2022/12/22 11:03:38;;;;;;;;;;;;;;;7.18;54.36;100446.22;5333064;32;33538;-74
2022/12/22 11:06:42;;;;;;;;;;;;;;;7.60;52.48;100457.41;5326857;32;33090;-73
2022/12/22 11:09:44;;;;;;;;;;;;;;;6.93;53.76;100454.66;5326770;32;33645;-73
2022/12/22 11:12:53;;;;;;;;;;;;;;;6.59;57.05;100451.94;5328161;32;33978;-73
2022/12/22 11:16:02;;;;;;;;;;;;;;;7.52;53.86;100454.09;5337476;32;44843;-76
2022/12/22 11:19:07;;;;;;;;;;;;;;;6.62;55.43;100458.84;5327876;32;32236;-77
2022/12/22 11:22:16;;;;;;;;;;;;;;;6.65;55.97;100454.41;5318673;32;34147;-81
2022/12/22 11:25:41;;;;;;;;;;;;;;;6.16;57.62;100447.59;5332704;32;44442;-77
2022/12/22 11:28:52;;;;;;;;;;;;;;;7.36;55.66;100450.16;5321848;32;31583;-73
2022/12/22 11:32:15;;;;;;;;;;;;;;;7.94;52.54;100433.78;5321460;32;44606;-85
2022/12/22 11:35:26;;;;;;;;;;;;;;;7.91;52.64;100433.87;5318088;32;44679;-79
2022/12/22 11:38:39;;;;;;;;;;;;;;;7.12;54.51;100430.69;5330968;32;35267;-79
2022/12/22 11:41:59;;;;;;;;;;;;;;;7.03;56.62;100429.19;5339357;32;33324;-76
2022/12/22 11:45:10;;;;;;;;;;;;;;;7.80;53.44;100420.25;5327150;32;33301;-75
2022/12/22 11:48:15;;;;;;;;;;;;;;;8.08;52.59;100442.12;5338758;32;33311;-95
2022/12/22 11:51:36;;;;;;;;;;;;;;;7.57;53.43;100436.53;5326489;32;43282;-84
2022/12/22 11:54:56;;;;;;;;;;;;;;;6.48;57.60;100446.09;5327907;32;33175;-75
2022/12/22 11:58:01;;;;;;;;;;;;;;;6.99;55.85;100444.06;5342236;32;33312;-83
2022/12/22 12:01:22;;;;;;;;;;;;;;;6.39;58.04;100447.16;5329868;32;33103;-77
2022/12/22 12:04:30;;;;;;;;;;;;;;;6.38;58.73;100437.59;5326113;32;33484;-71
2022/12/22 12:07:38;;;;;;;;;;;;;;;7.28;55.08;100419.84;5339461;32;34694;-72
2022/12/22 12:10:44;;;;;;;;;;;;;;;6.87;56.40;100433.87;5330123;32;33257;-78
2022/12/22 12:13:53;;;;;;;;;;;;;;;6.87;56.63;100436.50;5342938;32;36996;-75
2022/12/22 12:16:58;;;;;;;;;;;;;;;6.79;56.24;100433.22;5325425;32;33245;-76
2022/12/22 12:20:19;;;;;;;;;;;;;;;6.38;57.64;100435.00;5316844;32;33142;-75
2022/12/22 12:23:33;;;;;;;;;;;;;;;6.96;56.96;100427.59;5341059;32;46157;-85
2022/12/22 12:26:54;;;;;;;;;;;;;;;6.70;57.67;100429.06;5328501;32;33187;-78
2022/12/22 12:29:58;;;;;;;;;;;;;;;7.68;53.95;100405.72;5338533;32;44456;-78
2022/12/22 12:33:34;;;;;;;;;;;;;;;7.33;55.00;100407.50;5325185;32;45116;-79
2022/12/22 12:36:40;;;;;;;;;;;;;;;6.97;56.68;100421.47;5324575;32;35019;-86
2022/12/22 12:39:49;;;;;;;;;;;;;;;6.69;56.32;100444.75;5336496;32;33600;-82
2022/12/22 12:42:51;;;;;;;;;;;;;;;5.93;59.60;100473.31;5330410;32;45118;-78
2022/12/22 12:45:54;;;;;;;;;;;;;;;5.82;60.51;100475.22;5334813;32;33694;-77
2022/12/22 12:48:56;;;;;;;;;;;;;;;6.98;57.77;100463.25;5315974;32;34353;-77
2022/12/22 12:52:00;;;;;;;;;;;;;;;7.15;55.51;100459.38;5313567;32;33298;-85
2022/12/22 12:55:21;;;;;;;;;;;;;;;7.22;56.25;100458.34;5320174;32;35056;-79
2022/12/22 12:58:38;;;;;;;;;;;;;;;7.50;54.94;100456.75;5326719;32;34563;-79
2022/12/22 13:01:40;;;;;;;;;;;;;;;7.20;56.05;100454.88;5339712;32;34824;-76
2022/12/22 13:05:01;;;;;;;;;;;;;;;7.33;56.85;100438.88;5327437;32;34903;-81
2022/12/22 13:08:03;;;;;;;;;;;;;;;7.49;54.81;100435.88;5329317;32;33646;-81
2022/12/22 13:11:05;;;;;;;;;;;;;;;7.81;54.08;100430.66;5336198;32;34403;-86
2022/12/22 13:14:07;;;;;;;;;;;;;;;7.50;55.12;100438.44;5326015;32;33723;-76
2022/12/22 13:17:35;;;;;;;;;;;;;;;7.15;56.77;100428.00;5339156;32;33923;-76
2022/12/22 13:20:37;;;;;;;;;;;;;;;7.93;54.71;100426.00;5302247;32;33473;-75
2022/12/22 13:23:58;;;;;;;;;;;;;;;7.46;55.07;100431.56;5316424;32;31724;-70
2022/12/22 13:27:20;;;;;;;;;;;;;;;8.20;53.83;100393.78;5337973;32;35183;-72
2022/12/22 13:30:22;;;;;;;;;;;;;;;8.07;54.03;100389.81;5312248;32;34001;-73
2022/12/22 13:33:24;;;;;;;;;;;;;;;6.74;57.92;100412.41;5334706;32;35326;-73
2022/12/22 13:36:27;;;;;;;;;;;;;;;7.24;57.12;100407.72;5308498;32;34938;-71
2022/12/22 13:39:29;;;;;;;;;;;;;;;8.12;54.88;100408.88;5298233;32;916891;-75
2022/12/22 13:42:34;;;;;;;;;;;;;;;7.13;57.19;100382.75;5332724;32;33183;-75
2022/12/22 13:45:40;;;;;;;;;;;;;;;7.28;57.24;100369.31;5321796;32;33395;-82
2022/12/22 13:48:43;;;;;;;;;;;;;;;7.75;55.80;100360.19;5329080;32;33816;-82
2022/12/22 13:51:46;;;;;;;;;;;;;;;7.03;58.06;100376.91;5305931;32;43426;-74
2022/12/22 13:54:48;;;;;;;;;;;;;;;7.51;57.21;100356.47;5334911;32;33615;-71
2022/12/22 13:57:51;;;;;;;;;;;;;;;6.83;58.86;100364.34;5325713;32;33056;-70
2022/12/22 14:01:03;;;;;;;;;;;;;;;7.12;58.18;100361.00;5326862;32;33041;-80
2022/12/22 14:04:11;;;;;;;;;;;;;;;6.10;62.02;100386.84;5329584;32;33278;-90
2022/12/22 14:07:18;;;;;;;;;;;;;;;7.10;58.56;100338.41;5335835;32;33786;-90
2022/12/22 14:10:24;;;;;;;;;;;;;;;6.15;62.09;100346.72;5345162;32;44584;-79
2022/12/22 14:13:27;;;;;;;;;;;;;;;6.50;60.77;100358.13;5335249;32;33176;-77
2022/12/22 14:16:29;;;;;;;;;;;;;;;5.96;63.57;100384.53;5337070;32;36438;-78
2022/12/22 14:19:32;;;;;;;;;;;;;;;6.07;62.46;100366.91;5331618;32;34237;-78
2022/12/22 14:22:38;;;;;;;;;;;;;;;6.19;63.47;100343.16;5323497;32;34386;-74
2022/12/22 14:25:41;;;;;;;;;;;;;;;5.62;64.52;100371.28;5338995;32;33201;-76
2022/12/22 14:28:49;;;;;;;;;;;;;;;6.44;63.54;100372.19;5329333;32;34895;-76
2022/12/22 14:31:58;;;;;;;;;;;;;;;6.84;61.50;100350.38;5323974;32;44365;-91
2022/12/22 14:35:01;;;;;;;;;;;;;;;6.63;62.20;100358.69;5327883;32;33239;-67
2022/12/22 14:38:12;;;;;;;;;;;;;;;6.06;63.57;100365.19;5329724;32;31665;-78
2022/12/22 14:44:44;;;;;;;;;;;;;;;6.37;63.91;100396.69;5324991;32;34675;-77
2022/12/22 14:47:46;;;;;;;;;;;;;;;6.69;60.95;100408.19;5325946;32;35996;-69
2022/12/22 14:50:48;;;;;;;;;;;;;;;6.52;62.20;100403.34;5312797;32;33768;-78
2022/12/22 14:53:54;;;;;;;;;;;;;;;5.53;66.05;100414.00;5317200;32;33957;-78
2022/12/22 14:56:59;;;;;;;;;;;;;;;6.51;63.15;100412.09;5323461;32;33701;-67
2022/12/22 15:00:06;;;;;;;;;;;;;;;6.07;63.60;100408.66;5317957;32;33679;-77
2022/12/22 15:03:23;;;;;;;;;;;;;;;5.43;66.25;100402.87;5333105;32;34160;-76
2022/12/22 15:06:25;;;;;;;;;;;;;;;5.61;66.59;100393.03;5322895;32;44800;-78
2022/12/22 15:09:28;;;;;;;;;;;;;;;5.26;69.29;100386.66;5332477;32;33837;-65
2022/12/22 15:12:50;;;;;;;;;;;;;;;5.08;68.76;100382.63;5335349;32;45094;-78
2022/12/22 15:15:52;;;;;;;;;;;;;;;4.79;69.58;100380.50;5321477;32;34542;-76
2022/12/22 15:18:54;;;;;;;;;;;;;;;4.33;72.47;100386.37;5337133;32;33256;-68
2022/12/22 15:21:56;;;;;;;;;;;;;;;4.08;74.17;100375.44;5323187;32;33179;-66
2022/12/22 15:24:58;;;;;;;;;;;;;;;4.39;73.45;100377.62;5338366;32;33674;-76
2022/12/22 15:28:00;;;;;;;;;;;;;;;4.23;74.40;100363.97;5321773;32;34834;-77
2022/12/22 15:31:02;;;;;;;;;;;;;;;4.27;74.30;100368.25;5323556;32;34301;-77
2022/12/22 15:34:09;;;;;;;;;;;;;;;4.65;73.44;100361.66;5336642;32;33696;-76
2022/12/22 15:37:11;;;;;;;;;;;;;;;4.90;70.75;100356.91;5323893;32;34547;-65
2022/12/22 15:40:18;;;;;;;;;;;;;;;5.53;69.59;100355.78;5339462;32;33144;-65
2022/12/22 15:43:19;;;;;;;;;;;;;;;5.04;71.09;100348.87;5322821;32;44968;-77
2022/12/22 15:46:42;;;;;;;;;;;;;;;5.62;68.94;100339.97;5329108;32;34006;-77
2022/12/22 15:49:44;;;;;;;;;;;;;;;5.29;70.36;100344.09;5333128;32;32780;-66
2022/12/22 15:52:48;;;;;;;;;;;;;;;4.60;73.49;100312.25;5303472;32;45966;-66
2022/12/22 15:55:50;;;;;;;;;;;;;;;5.63;69.63;100316.47;5325293;32;34258;-65
2022/12/22 15:58:52;;;;;;;;;;;;;;;5.41;70.41;100328.22;5322515;32;33772;-66
2022/12/22 16:01:56;;;;;;;;;;;;;;;5.26;70.87;100318.91;5339827;32;33794;-77
2022/12/22 16:05:03;;;;;;;;;;;;;;;4.51;75.02;100314.16;5325329;32;33736;-65
2022/12/22 16:08:14;;;;;;;;;;;;;;;4.88;74.72;100322.19;5326684;32;33264;-77
2022/12/22 16:11:19;;;;;;;;;;;;;;;4.77;75.16;100326.75;5337694;32;44845;-76
2022/12/22 16:14:21;;;;;;;;;;;;;;;4.67;74.67;100326.03;5324816;32;33485;-67
2022/12/22 16:17:24;;;;;;;;;;;;;;;4.71;75.87;100325.09;5337693;32;33783;-66
2022/12/22 16:20:27;;;;;;;;;;;;;;;5.06;73.22;100336.66;5323750;32;33776;-65
2022/12/22 16:23:36;;;;;;;;;;;;;;;5.37;72.19;100343.03;5334245;32;35271;-77
2022/12/22 16:26:38;;;;;;;;;;;;;;;5.49;70.64;100335.87;5328790;32;33912;-75
2022/12/22 16:29:42;;;;;;;;;;;;;;;5.03;73.27;100355.81;5322354;32;34499;-77
2022/12/22 16:32:44;;;;;;;;;;;;;;;5.20;72.71;100375.50;5323934;32;32338;-78
2022/12/22 16:35:46;;;;;;;;;;;;;;;4.62;76.20;100377.28;5321942;32;45351;-67
2022/12/22 16:38:48;;;;;;;;;;;;;;;5.53;74.37;100377.50;5339121;32;34031;-65
2022/12/22 16:41:50;;;;;;;;;;;;;;;6.10;69.35;100365.97;5322977;32;33513;-67
2022/12/22 16:45:03;;;;;;;;;;;;;;;5.79;70.02;100366.56;5330950;32;33659;-77
2022/12/22 16:48:06;;;;;;;;;;;;;;;5.70;71.46;100371.97;5334556;32;34480;-76
2022/12/22 16:51:11;;;;;;;;;;;;;;;5.55;71.31;100354.88;5312242;32;33883;-65
2022/12/22 16:54:13;;;;;;;;;;;;;;;5.54;71.99;100365.31;5332057;32;34140;-64
2022/12/22 16:57:15;;;;;;;;;;;;;;;5.25;72.73;100365.87;5324823;32;34033;-76
2022/12/22 17:00:21;;;;;;;;;;;;;;;5.08;74.07;100363.53;5338032;32;45183;-77
2022/12/22 17:03:24;;;;;;;;;;;;;;;5.27;73.00;100358.87;5323997;32;35240;-77
2022/12/22 17:06:26;;;;;;;;;;;;;;;5.21;74.70;100352.00;5325908;32;33108;-77
2022/12/22 17:09:29;;;;;;;;;;;;;;;5.65;71.78;100353.78;5340612;32;33915;-65
2022/12/22 17:12:32;;;;;;;;;;;;;;;5.31;73.17;100364.00;5323092;32;34171;-79
2022/12/22 17:15:34;;;;;;;;;;;;;;;5.12;74.56;100365.22;5339041;32;33501;-77
2022/12/22 17:18:36;;;;;;;;;;;;;;;4.92;75.78;100344.72;5324899;32;34677;-66
2022/12/22 17:21:38;;;;;;;;;;;;;;;4.89;76.37;100340.44;5339413;32;34730;-77
2022/12/22 17:24:40;;;;;;;;;;;;;;;4.86;76.74;100358.69;5325829;32;35065;-66
2022/12/22 17:27:42;;;;;;;;;;;;;;;5.12;76.06;100350.44;5326459;32;34464;-77
2022/12/22 17:30:44;;;;;;;;;;;;;;;5.35;75.55;100344.81;5338959;32;33549;-66
2022/12/22 17:33:46;;;;;;;;;;;;;;;5.31;75.42;100339.69;5322030;32;43407;-76
2022/12/22 17:36:48;;;;;;;;;;;;;;;4.88;77.21;100343.88;5339459;32;33355;-78
2022/12/22 17:39:59;;;;;;;;;;;;;;;5.05;77.26;100345.37;5326277;32;33925;-65
2022/12/22 17:43:01;;;;;;;;;;;;;;;5.11;77.11;100350.47;5337242;32;34366;-69
2022/12/22 17:46:04;;;;;;;;;;;;;;;4.98;76.87;100344.63;5330136;32;33378;-83
2022/12/22 17:49:06;;;;;;;;;;;;;;;5.02;78.02;100350.59;5326830;32;34132;-67
2022/12/22 17:52:14;;;;;;;;;;;;;;;4.97;78.25;100347.25;5322424;32;33943;-82
2022/12/22 17:55:21;;;;;;;;;;;;;;;4.88;78.55;100350.84;5323349;32;43250;-67
2022/12/22 17:58:43;;;;;;;;;;;;;;;5.08;79.76;100355.72;5338997;32;34183;-67
2022/12/22 18:01:45;;;;;;;;;;;;;;;5.09;78.57;100345.28;5327051;32;34431;-83
2022/12/22 18:04:47;;;;;;;;;;;;;;;5.51;77.73;100340.16;5328038;32;45573;-82
2022/12/22 18:07:49;;;;;;;;;;;;;;;5.96;74.36;100342.78;5341500;32;33654;-82
2022/12/22 18:10:51;;;;;;;;;;;;;;;5.38;75.59;100346.50;5325251;32;33991;-82
2022/12/22 18:13:53;;;;;;;;;;;;;;;5.15;77.33;100342.59;5340871;32;33633;-66
2022/12/22 18:16:55;;;;;;;;;;;;;;;5.17;77.79;100347.75;5327080;32;34358;-75
2022/12/22 18:19:57;;;;;;;;;;;;;;;5.24;77.33;100354.59;5341589;32;34138;-76
2022/12/22 18:22:59;;;;;;;;;;;;;;;4.95;79.12;100349.84;5327672;32;33630;-68
2022/12/22 18:26:03;;;;;;;;;;;;;;;5.23;78.85;100350.25;5328759;32;33460;-81
2022/12/22 18:29:08;;;;;;;;;;;;;;;5.11;78.55;100345.25;5341929;32;33905;-83
2022/12/22 18:32:10;;;;;;;;;;;;;;;4.64;80.30;100344.31;5321543;32;34546;-67
2022/12/22 18:35:12;;;;;;;;;;;;;;;5.09;79.67;100347.03;5339610;32;33935;-82
2022/12/22 18:38:33;;;;;;;;;;;;;;;5.04;79.28;100347.12;5324233;32;34087;-68
2022/12/22 18:41:35;;;;;;;;;;;;;;;5.37;79.29;100345.66;5329118;32;33844;-84
2022/12/22 18:44:37;;;;;;;;;;;;;;;5.56;77.52;100338.34;5322707;32;34737;-77
2022/12/22 18:47:39;;;;;;;;;;;;;;;5.40;78.83;100331.69;5325832;32;33178;-67
2022/12/22 18:50:41;;;;;;;;;;;;;;;5.36;79.17;100315.28;5329115;32;33910;-83
2022/12/22 18:53:43;;;;;;;;;;;;;;;5.06;82.36;100306.25;5319212;32;33729;-83
2022/12/22 18:56:46;;;;;;;;;;;;;;;5.74;78.38;100300.63;5341945;32;34325;-83
2022/12/22 18:59:48;;;;;;;;;;;;;;;5.11;80.88;100298.37;5325402;32;45137;-83
2022/12/22 19:02:51;;;;;;;;;;;;;;;6.13;79.16;100285.03;5330713;32;36129;-69
2022/12/22 19:05:53;;;;;;;;;;;;;;;6.41;77.18;100291.31;5333861;32;34047;-68
2022/12/22 19:08:54;;;;;;;;;;;;;;;6.84;73.86;100286.81;5326047;32;33787;-67
2022/12/22 19:11:57;;;;;;;;;;;;;;;6.53;74.92;100290.19;5339699;32;34447;-67
2022/12/22 19:15:02;;;;;;;;;;;;;;;6.43;75.55;100286.91;5326926;32;35671;-68
2022/12/22 19:18:04;;;;;;;;;;;;;;;6.22;75.68;100290.03;5341925;32;33348;-67
2022/12/22 19:21:07;;;;;;;;;;;;;;;6.54;74.85;100291.03;5325172;32;33918;-83
2022/12/22 19:24:10;;;;;;;;;;;;;;;6.33;76.06;100280.22;5327251;32;33951;-84
2022/12/22 19:27:24;;;;;;;;;;;;;;;5.96;78.21;100281.03;5339200;32;34683;-67
2022/12/22 19:30:26;;;;;;;;;;;;;;;6.95;72.25;100275.16;5323684;32;33753;-84
2022/12/22 19:33:41;;;;;;;;;;;;;;;6.43;73.87;100271.25;5337922;32;34534;-77
2022/12/22 19:36:43;;;;;;;;;;;;;;;5.81;77.31;100272.66;5323107;32;35487;-83
2022/12/22 19:39:45;;;;;;;;;;;;;;;5.70;78.96;100278.94;5322441;32;33270;-68
2022/12/22 19:42:48;;;;;;;;;;;;;;;6.15;77.06;100271.03;5329950;32;44811;-82
2022/12/22 19:45:50;;;;;;;;;;;;;;;7.10;72.25;100246.94;5313948;32;34527;-84
2022/12/22 19:48:52;;;;;;;;;;;;;;;7.06;71.71;100251.38;5339122;32;33877;-68